sensor_id;sensor_type;location;lat;lon;timestamp;P1;durP1;ratioP1;P2;durP2;ratioP2
23171;SDS011;11754;42.664;23.594;2024-02-15T00:00:58;14.38;;;11.07;;
23171;SDS011;11754;42.664;23.594;2024-02-15T00:03:25;14.60;;;10.70;;
23171;SDS011;11754;42.664;23.594;2024-02-15T00:05:50;16.13;;;11.60;;
23171;SDS011;11754;42.664;23.594;2024-02-15T00:11:37;14.70;;;11.07;;
23171;SDS011;11754;42.664;23.594;2024-02-15T00:14:05;20.63;;;11.32;;
23171;SDS011;11754;42.664;23.594;2024-02-15T00:16:30;15.02;;;10.88;;
23171;SDS011;11754;42.664;23.594;2024-02-15T00:18:56;15.00;;;10.68;;
23171;SDS011;11754;42.664;23.594;2024-02-15T00:21:22;15.18;;;11.52;;
23171;SDS011;11754;42.664;23.594;2024-02-15T00:23:50;16.35;;;11.60;;
23171;SDS011;11754;42.664;23.594;2024-02-15T00:26:15;14.75;;;11.52;;
23171;SDS011;11754;42.664;23.594;2024-02-15T00:32:18;16.95;;;11.93;;
23171;SDS011;11754;42.664;23.594;2024-02-15T00:34:43;15.13;;;11.07;;
23171;SDS011;11754;42.664;23.594;2024-02-15T00:37:09;15.52;;;10.70;;
23171;SDS011;11754;42.664;23.594;2024-02-15T00:39:34;15.23;;;11.45;;
23171;SDS011;11754;42.664;23.594;2024-02-15T00:41:59;19.85;;;11.30;;
23171;SDS011;11754;42.664;23.594;2024-02-15T01:19:55;16.02;;;11.25;;
23171;SDS011;11754;42.664;23.594;2024-02-15T01:22:20;15.20;;;10.60;;
23171;SDS011;11754;42.664;23.594;2024-02-15T01:24:48;15.85;;;10.80;;
23171;SDS011;11754;42.664;23.594;2024-02-15T01:27:14;17.33;;;11.68;;
23171;SDS011;11754;42.664;23.594;2024-02-15T01:29:39;16.55;;;11.60;;
23171;SDS011;11754;42.664;23.594;2024-02-15T01:32:05;15.30;;;10.52;;
23171;SDS011;11754;42.664;23.594;2024-02-15T01:34:30;15.98;;;11.07;;
23171;SDS011;11754;42.664;23.594;2024-02-15T01:36:55;16.15;;;11.48;;
23171;SDS011;11754;42.664;23.594;2024-02-15T01:39:21;15.02;;;10.60;;
23171;SDS011;11754;42.664;23.594;2024-02-15T01:41:47;16.08;;;10.98;;
23171;SDS011;11754;42.664;23.594;2024-02-15T01:44:13;14.07;;;10.65;;
23171;SDS011;11754;42.664;23.594;2024-02-15T01:46:39;16.35;;;10.85;;
23171;SDS011;11754;42.664;23.594;2024-02-15T01:49:05;15.98;;;10.25;;
23171;SDS011;11754;42.664;23.594;2024-02-15T01:51:32;17.17;;;11.02;;
23171;SDS011;11754;42.664;23.594;2024-02-15T01:54:00;15.23;;;10.93;;
23171;SDS011;11754;42.664;23.594;2024-02-15T01:56:26;15.98;;;10.60;;
23171;SDS011;11754;42.664;23.594;2024-02-15T01:58:53;16.35;;;11.57;;
23171;SDS011;11754;42.664;23.594;2024-02-15T02:01:18;14.45;;;10.95;;
23171;SDS011;11754;42.664;23.594;2024-02-15T02:03:46;14.27;;;11.27;;
23171;SDS011;11754;42.664;23.594;2024-02-15T02:06:11;14.07;;;10.27;;
23171;SDS011;11754;42.664;23.594;2024-02-15T02:08:50;16.40;;;10.63;;
23171;SDS011;11754;42.664;23.594;2024-02-15T02:11:16;15.77;;;10.82;;
23171;SDS011;11754;42.664;23.594;2024-02-15T02:13:42;15.75;;;10.32;;
23171;SDS011;11754;42.664;23.594;2024-02-15T02:18:52;12.85;;;10.13;;
23171;SDS011;11754;42.664;23.594;2024-02-15T02:21:18;16.00;;;10.48;;
23171;SDS011;11754;42.664;23.594;2024-02-15T02:23:43;15.10;;;11.10;;
23171;SDS011;11754;42.664;23.594;2024-02-15T02:26:15;17.90;;;11.63;;
23171;SDS011;11754;42.664;23.594;2024-02-15T02:28:41;16.38;;;11.02;;
23171;SDS011;11754;42.664;23.594;2024-02-15T02:31:06;17.77;;;11.50;;
23171;SDS011;11754;42.664;23.594;2024-02-15T02:33:31;16.25;;;11.30;;
23171;SDS011;11754;42.664;23.594;2024-02-15T02:35:58;15.68;;;11.85;;
23171;SDS011;11754;42.664;23.594;2024-02-15T02:41:48;17.58;;;11.60;;
23171;SDS011;11754;42.664;23.594;2024-02-15T02:44:14;23.23;;;12.20;;
23171;SDS011;11754;42.664;23.594;2024-02-15T02:46:39;16.23;;;11.73;;
23171;SDS011;11754;42.664;23.594;2024-02-15T02:49:06;16.75;;;11.15;;
23171;SDS011;11754;42.664;23.594;2024-02-15T02:51:32;16.80;;;11.07;;
23171;SDS011;11754;42.664;23.594;2024-02-15T03:00:41;15.60;;;11.07;;
23171;SDS011;11754;42.664;23.594;2024-02-15T03:03:07;16.83;;;11.65;;
23171;SDS011;11754;42.664;23.594;2024-02-15T03:05:34;15.52;;;11.02;;
23171;SDS011;11754;42.664;23.594;2024-02-15T03:08:00;18.50;;;11.90;;
23171;SDS011;11754;42.664;23.594;2024-02-15T03:10:25;17.85;;;12.23;;
23171;SDS011;11754;42.664;23.594;2024-02-15T03:12:50;18.63;;;11.82;;
23171;SDS011;11754;42.664;23.594;2024-02-15T03:15:17;18.63;;;12.05;;
23171;SDS011;11754;42.664;23.594;2024-02-15T03:17:46;16.75;;;12.13;;
23171;SDS011;11754;42.664;23.594;2024-02-15T03:20:12;16.48;;;11.25;;
23171;SDS011;11754;42.664;23.594;2024-02-15T03:22:56;17.95;;;12.10;;
23171;SDS011;11754;42.664;23.594;2024-02-15T03:25:26;19.02;;;11.48;;
23171;SDS011;11754;42.664;23.594;2024-02-15T03:27:54;21.70;;;13.57;;
23171;SDS011;11754;42.664;23.594;2024-02-15T03:33:08;23.45;;;14.40;;
23171;SDS011;11754;42.664;23.594;2024-02-15T03:35:34;23.15;;;13.75;;
23171;SDS011;11754;42.664;23.594;2024-02-15T03:38:00;21.63;;;13.60;;
23171;SDS011;11754;42.664;23.594;2024-02-15T03:40:28;17.50;;;12.70;;
23171;SDS011;11754;42.664;23.594;2024-02-15T03:43:13;16.92;;;12.40;;
23171;SDS011;11754;42.664;23.594;2024-02-15T03:45:39;20.10;;;12.30;;
23171;SDS011;11754;42.664;23.594;2024-02-15T03:48:06;19.75;;;12.60;;
23171;SDS011;11754;42.664;23.594;2024-02-15T03:50:33;21.90;;;12.60;;
23171;SDS011;11754;42.664;23.594;2024-02-15T03:52:58;16.75;;;12.90;;
23171;SDS011;11754;42.664;23.594;2024-02-15T03:55:25;22.10;;;13.23;;
23171;SDS011;11754;42.664;23.594;2024-02-15T03:57:50;19.92;;;13.35;;
23171;SDS011;11754;42.664;23.594;2024-02-15T04:00:15;19.85;;;12.55;;
23171;SDS011;11754;42.664;23.594;2024-02-15T04:02:45;19.30;;;12.63;;
23171;SDS011;11754;42.664;23.594;2024-02-15T04:05:12;21.85;;;12.90;;
23171;SDS011;11754;42.664;23.594;2024-02-15T04:07:38;19.00;;;13.20;;
23171;SDS011;11754;42.664;23.594;2024-02-15T04:10:07;19.05;;;12.35;;
23171;SDS011;11754;42.664;23.594;2024-02-15T04:12:33;17.52;;;11.77;;
23171;SDS011;11754;42.664;23.594;2024-02-15T04:14:58;19.23;;;12.93;;
23171;SDS011;11754;42.664;23.594;2024-02-15T04:17:30;23.52;;;13.02;;
23171;SDS011;11754;42.664;23.594;2024-02-15T04:19:57;23.20;;;13.20;;
23171;SDS011;11754;42.664;23.594;2024-02-15T04:22:23;20.02;;;13.70;;
23171;SDS011;11754;42.664;23.594;2024-02-15T04:24:49;21.73;;;14.32;;
23171;SDS011;11754;42.664;23.594;2024-02-15T04:27:14;19.52;;;13.57;;
23171;SDS011;11754;42.664;23.594;2024-02-15T04:29:40;21.05;;;13.25;;
23171;SDS011;11754;42.664;23.594;2024-02-15T04:38:52;20.15;;;12.98;;
23171;SDS011;11754;42.664;23.594;2024-02-15T04:41:18;20.88;;;13.63;;
23171;SDS011;11754;42.664;23.594;2024-02-15T04:43:50;22.98;;;13.63;;
23171;SDS011;11754;42.664;23.594;2024-02-15T04:46:17;24.27;;;13.77;;
23171;SDS011;11754;42.664;23.594;2024-02-15T04:52:07;59.37;;;33.93;;
23171;SDS011;11754;42.664;23.594;2024-02-15T04:54:34;23.33;;;14.38;;
23171;SDS011;11754;42.664;23.594;2024-02-15T04:56:59;19.55;;;13.82;;
23171;SDS011;11754;42.664;23.594;2024-02-15T04:59:25;20.45;;;13.13;;
23171;SDS011;11754;42.664;23.594;2024-02-15T05:02:09;23.95;;;14.25;;
23171;SDS011;11754;42.664;23.594;2024-02-15T05:04:35;19.83;;;14.07;;
23171;SDS011;11754;42.664;23.594;2024-02-15T05:07:01;20.77;;;14.45;;
23171;SDS011;11754;42.664;23.594;2024-02-15T05:09:26;22.10;;;14.02;;
23171;SDS011;11754;42.664;23.594;2024-02-15T05:11:52;19.50;;;13.20;;
23171;SDS011;11754;42.664;23.594;2024-02-15T05:14:17;20.83;;;14.32;;
23171;SDS011;11754;42.664;23.594;2024-02-15T05:16:48;22.45;;;14.05;;
23171;SDS011;11754;42.664;23.594;2024-02-15T05:19:14;20.48;;;13.50;;
23171;SDS011;11754;42.664;23.594;2024-02-15T05:21:41;20.92;;;13.20;;
23171;SDS011;11754;42.664;23.594;2024-02-15T05:24:06;22.50;;;13.93;;
23171;SDS011;11754;42.664;23.594;2024-02-15T05:26:32;19.35;;;13.82;;
23171;SDS011;11754;42.664;23.594;2024-02-15T05:28:57;20.55;;;13.23;;
23171;SDS011;11754;42.664;23.594;2024-02-15T05:31:23;21.48;;;13.15;;
23171;SDS011;11754;42.664;23.594;2024-02-15T05:33:51;20.38;;;12.68;;
23171;SDS011;11754;42.664;23.594;2024-02-15T05:36:18;27.25;;;14.30;;
23171;SDS011;11754;42.664;23.594;2024-02-15T05:38:46;21.42;;;13.10;;
23171;SDS011;11754;42.664;23.594;2024-02-15T05:41:12;21.52;;;13.50;;
23171;SDS011;11754;42.664;23.594;2024-02-15T05:43:41;19.58;;;12.65;;
23171;SDS011;11754;42.664;23.594;2024-02-15T05:46:07;20.77;;;13.68;;
23171;SDS011;11754;42.664;23.594;2024-02-15T05:48:34;17.48;;;13.45;;
23171;SDS011;11754;42.664;23.594;2024-02-15T05:51:03;19.77;;;13.20;;
23171;SDS011;11754;42.664;23.594;2024-02-15T05:53:29;21.25;;;13.38;;
23171;SDS011;11754;42.664;23.594;2024-02-15T05:55:56;22.00;;;12.80;;
23171;SDS011;11754;42.664;23.594;2024-02-15T05:58:25;21.98;;;12.98;;
23171;SDS011;11754;42.664;23.594;2024-02-15T06:00:51;20.23;;;13.23;;
23171;SDS011;11754;42.664;23.594;2024-02-15T06:03:18;23.08;;;13.07;;
23171;SDS011;11754;42.664;23.594;2024-02-15T06:05:44;58.42;;;34.70;;
23171;SDS011;11754;42.664;23.594;2024-02-15T06:08:12;23.45;;;14.52;;
23171;SDS011;11754;42.664;23.594;2024-02-15T06:10:38;23.50;;;15.13;;
23171;SDS011;11754;42.664;23.594;2024-02-15T06:13:05;24.50;;;14.00;;
23171;SDS011;11754;42.664;23.594;2024-02-15T06:15:30;22.35;;;12.98;;
23171;SDS011;11754;42.664;23.594;2024-02-15T06:17:56;27.35;;;14.55;;
23171;SDS011;11754;42.664;23.594;2024-02-15T06:20:22;35.30;;;14.85;;
23171;SDS011;11754;42.664;23.594;2024-02-15T06:22:48;22.30;;;14.15;;
23171;SDS011;11754;42.664;23.594;2024-02-15T06:25:13;26.40;;;13.82;;
23171;SDS011;11754;42.664;23.594;2024-02-15T06:27:40;27.60;;;14.07;;
23171;SDS011;11754;42.664;23.594;2024-02-15T06:30:07;18.65;;;13.30;;
23171;SDS011;11754;42.664;23.594;2024-02-15T06:32:52;25.70;;;13.70;;
23171;SDS011;11754;42.664;23.594;2024-02-15T06:35:36;22.77;;;12.95;;
23171;SDS011;11754;42.664;23.594;2024-02-15T06:41:42;20.07;;;13.60;;
23171;SDS011;11754;42.664;23.594;2024-02-15T06:44:08;22.92;;;13.85;;
23171;SDS011;11754;42.664;23.594;2024-02-15T06:46:34;19.42;;;13.50;;
23171;SDS011;11754;42.664;23.594;2024-02-15T06:49:00;21.23;;;13.18;;
23171;SDS011;11754;42.664;23.594;2024-02-15T06:58:22;19.92;;;13.65;;
23171;SDS011;11754;42.664;23.594;2024-02-15T07:00:48;23.77;;;13.77;;
23171;SDS011;11754;42.664;23.594;2024-02-15T07:03:15;21.58;;;13.60;;
23171;SDS011;11754;42.664;23.594;2024-02-15T07:05:41;26.25;;;13.98;;
23171;SDS011;11754;42.664;23.594;2024-02-15T07:14:51;20.57;;;12.97;;
23171;SDS011;11754;42.664;23.594;2024-02-15T07:17:16;76.20;;;43.20;;
23171;SDS011;11754;42.664;23.594;2024-02-15T07:19:45;35.50;;;21.35;;
23171;SDS011;11754;42.664;23.594;2024-02-15T07:22:14;25.25;;;13.13;;
23171;SDS011;11754;42.664;23.594;2024-02-15T07:24:40;27.73;;;13.57;;
23171;SDS011;11754;42.664;23.594;2024-02-15T07:27:05;21.90;;;13.15;;
23171;SDS011;11754;42.664;23.594;2024-02-15T07:32:53;28.40;;;15.63;;
23171;SDS011;11754;42.664;23.594;2024-02-15T07:35:18;26.63;;;14.48;;
23171;SDS011;11754;42.664;23.594;2024-02-15T07:37:53;24.40;;;14.55;;
23171;SDS011;11754;42.664;23.594;2024-02-15T07:40:21;24.20;;;14.00;;
23171;SDS011;11754;42.664;23.594;2024-02-15T07:42:47;21.45;;;13.30;;
23171;SDS011;11754;42.664;23.594;2024-02-15T07:45:14;28.05;;;16.50;;
23171;SDS011;11754;42.664;23.594;2024-02-15T07:47:39;21.15;;;14.40;;
23171;SDS011;11754;42.664;23.594;2024-02-15T07:50:05;20.58;;;13.77;;
23171;SDS011;11754;42.664;23.594;2024-02-15T07:52:34;23.67;;;13.50;;
23171;SDS011;11754;42.664;23.594;2024-02-15T07:55:00;21.70;;;13.98;;
23171;SDS011;11754;42.664;23.594;2024-02-15T07:57:33;20.98;;;13.57;;
23171;SDS011;11754;42.664;23.594;2024-02-15T07:59:58;25.90;;;14.27;;
23171;SDS011;11754;42.664;23.594;2024-02-15T08:02:23;20.13;;;13.43;;
23171;SDS011;11754;42.664;23.594;2024-02-15T08:04:52;18.30;;;12.82;;
23171;SDS011;11754;42.664;23.594;2024-02-15T08:07:19;21.48;;;13.23;;
23171;SDS011;11754;42.664;23.594;2024-02-15T08:09:45;22.70;;;13.63;;
23171;SDS011;11754;42.664;23.594;2024-02-15T08:12:11;18.92;;;12.27;;
23171;SDS011;11754;42.664;23.594;2024-02-15T08:14:37;22.63;;;12.52;;
23171;SDS011;11754;42.664;23.594;2024-02-15T08:20:26;21.05;;;12.93;;
23171;SDS011;11754;42.664;23.594;2024-02-15T08:22:56;20.67;;;12.00;;
23171;SDS011;11754;42.664;23.594;2024-02-15T08:25:23;19.33;;;11.98;;
23171;SDS011;11754;42.664;23.594;2024-02-15T08:27:48;18.38;;;11.43;;
23171;SDS011;11754;42.664;23.594;2024-02-15T08:30:17;21.75;;;11.50;;
23171;SDS011;11754;42.664;23.594;2024-02-15T08:32:43;23.30;;;11.15;;
23171;SDS011;11754;42.664;23.594;2024-02-15T08:35:13;18.08;;;11.07;;
23171;SDS011;11754;42.664;23.594;2024-02-15T08:37:39;18.00;;;11.23;;
23171;SDS011;11754;42.664;23.594;2024-02-15T08:40:07;16.95;;;10.68;;
23171;SDS011;11754;42.664;23.594;2024-02-15T08:45:05;12.73;;;9.77;;
23171;SDS011;11754;42.664;23.594;2024-02-15T08:47:33;16.27;;;9.35;;
23171;SDS011;11754;42.664;23.594;2024-02-15T08:50:03;18.80;;;10.15;;
23171;SDS011;11754;42.664;23.594;2024-02-15T08:52:29;17.33;;;10.75;;
23171;SDS011;11754;42.664;23.594;2024-02-15T08:54:54;21.60;;;11.25;;
23171;SDS011;11754;42.664;23.594;2024-02-15T08:57:21;16.30;;;10.52;;
23171;SDS011;11754;42.664;23.594;2024-02-15T08:59:47;17.48;;;10.88;;
23171;SDS011;11754;42.664;23.594;2024-02-15T09:02:12;15.32;;;10.48;;
23171;SDS011;11754;42.664;23.594;2024-02-15T09:04:39;20.63;;;11.10;;
23171;SDS011;11754;42.664;23.594;2024-02-15T09:07:06;14.35;;;9.52;;
23171;SDS011;11754;42.664;23.594;2024-02-15T09:09:32;17.77;;;10.30;;
23171;SDS011;11754;42.664;23.594;2024-02-15T09:12:00;14.05;;;9.38;;
23171;SDS011;11754;42.664;23.594;2024-02-15T09:16:56;19.95;;;9.80;;
23171;SDS011;11754;42.664;23.594;2024-02-15T09:19:21;18.27;;;8.95;;
23171;SDS011;11754;42.664;23.594;2024-02-15T09:21:49;21.48;;;10.25;;
23171;SDS011;11754;42.664;23.594;2024-02-15T09:24:14;16.65;;;9.95;;
23171;SDS011;11754;42.664;23.594;2024-02-15T09:26:41;18.63;;;9.90;;
23171;SDS011;11754;42.664;23.594;2024-02-15T09:29:07;13.90;;;9.18;;
23171;SDS011;11754;42.664;23.594;2024-02-15T09:31:33;15.40;;;8.65;;
23171;SDS011;11754;42.664;23.594;2024-02-15T09:34:00;13.65;;;8.30;;
23171;SDS011;11754;42.664;23.594;2024-02-15T09:36:26;9.15;;;7.97;;
23171;SDS011;11754;42.664;23.594;2024-02-15T09:38:53;16.38;;;8.23;;
23171;SDS011;11754;42.664;23.594;2024-02-15T09:41:18;12.57;;;7.38;;
23171;SDS011;11754;42.664;23.594;2024-02-15T09:43:44;12.07;;;7.45;;
23171;SDS011;11754;42.664;23.594;2024-02-15T09:46:10;14.20;;;7.35;;
23171;SDS011;11754;42.664;23.594;2024-02-15T09:48:35;11.48;;;7.30;;
23171;SDS011;11754;42.664;23.594;2024-02-15T09:51:02;12.20;;;7.15;;
23171;SDS011;11754;42.664;23.594;2024-02-15T09:53:29;10.13;;;7.28;;
23171;SDS011;11754;42.664;23.594;2024-02-15T09:55:55;8.00;;;5.93;;
23171;SDS011;11754;42.664;23.594;2024-02-15T09:58:28;8.40;;;6.32;;
23171;SDS011;11754;42.664;23.594;2024-02-15T10:00:54;11.73;;;6.15;;
23171;SDS011;11754;42.664;23.594;2024-02-15T10:03:20;12.45;;;5.63;;
23171;SDS011;11754;42.664;23.594;2024-02-15T10:05:49;9.93;;;4.90;;
23171;SDS011;11754;42.664;23.594;2024-02-15T10:08:15;6.88;;;5.00;;
23171;SDS011;11754;42.664;23.594;2024-02-15T10:10:40;9.23;;;5.65;;
23171;SDS011;11754;42.664;23.594;2024-02-15T10:13:06;7.85;;;5.50;;
23171;SDS011;11754;42.664;23.594;2024-02-15T10:15:38;7.13;;;5.60;;
23171;SDS011;11754;42.664;23.594;2024-02-15T10:18:09;11.23;;;5.50;;
23171;SDS011;11754;42.664;23.594;2024-02-15T10:20:38;12.68;;;5.57;;
23171;SDS011;11754;42.664;23.594;2024-02-15T10:25:33;12.63;;;5.43;;
23171;SDS011;11754;42.664;23.594;2024-02-15T10:28:02;8.40;;;5.25;;
23171;SDS011;11754;42.664;23.594;2024-02-15T10:30:35;9.00;;;5.32;;
23171;SDS011;11754;42.664;23.594;2024-02-15T10:33:01;7.30;;;4.63;;
23171;SDS011;11754;42.664;23.594;2024-02-15T10:35:27;7.45;;;5.28;;
23171;SDS011;11754;42.664;23.594;2024-02-15T10:37:54;11.35;;;7.25;;
23171;SDS011;11754;42.664;23.594;2024-02-15T10:40:32;10.90;;;6.70;;
23171;SDS011;11754;42.664;23.594;2024-02-15T10:42:58;9.13;;;5.13;;
23171;SDS011;11754;42.664;23.594;2024-02-15T10:45:24;5.70;;;4.20;;
23171;SDS011;11754;42.664;23.594;2024-02-15T10:47:50;4.45;;;4.05;;
23171;SDS011;11754;42.664;23.594;2024-02-15T10:50:17;7.78;;;4.70;;
23171;SDS011;11754;42.664;23.594;2024-02-15T10:52:54;4.90;;;3.95;;
23171;SDS011;11754;42.664;23.594;2024-02-15T10:58:21;9.90;;;4.20;;
23171;SDS011;11754;42.664;23.594;2024-02-15T11:00:51;6.45;;;4.38;;
23171;SDS011;11754;42.664;23.594;2024-02-15T11:03:25;8.10;;;4.03;;
23171;SDS011;11754;42.664;23.594;2024-02-15T11:05:56;5.53;;;4.00;;
23171;SDS011;11754;42.664;23.594;2024-02-15T11:08:25;7.72;;;4.35;;
23171;SDS011;11754;42.664;23.594;2024-02-15T11:10:52;8.20;;;4.13;;
23171;SDS011;11754;42.664;23.594;2024-02-15T11:13:20;5.45;;;3.90;;
23171;SDS011;11754;42.664;23.594;2024-02-15T11:15:45;9.65;;;3.92;;
23171;SDS011;11754;42.664;23.594;2024-02-15T11:21:14;6.30;;;4.18;;
23171;SDS011;11754;42.664;23.594;2024-02-15T11:23:42;9.68;;;5.20;;
23171;SDS011;11754;42.664;23.594;2024-02-15T11:26:42;10.27;;;5.45;;
23171;SDS011;11754;42.664;23.594;2024-02-15T11:29:39;11.48;;;4.85;;
23171;SDS011;11754;42.664;23.594;2024-02-15T11:36:09;8.27;;;5.35;;
23171;SDS011;11754;42.664;23.594;2024-02-15T11:38:36;9.07;;;5.40;;
23171;SDS011;11754;42.664;23.594;2024-02-15T11:41:06;9.85;;;7.70;;
23171;SDS011;11754;42.664;23.594;2024-02-15T11:46:16;5.97;;;4.00;;
23171;SDS011;11754;42.664;23.594;2024-02-15T11:48:43;6.53;;;3.95;;
23171;SDS011;11754;42.664;23.594;2024-02-15T11:51:11;5.35;;;3.80;;
23171;SDS011;11754;42.664;23.594;2024-02-15T11:54:02;5.18;;;3.72;;
23171;SDS011;11754;42.664;23.594;2024-02-15T11:56:53;6.25;;;3.78;;
23171;SDS011;11754;42.664;23.594;2024-02-15T11:59:41;6.13;;;3.80;;
23171;SDS011;11754;42.664;23.594;2024-02-15T12:02:19;6.75;;;3.85;;
23171;SDS011;11754;42.664;23.594;2024-02-15T12:05:04;7.53;;;3.60;;
23171;SDS011;11754;42.664;23.594;2024-02-15T12:07:49;5.57;;;3.40;;
23171;SDS011;11754;42.664;23.594;2024-02-15T12:10:33;5.55;;;3.50;;
23171;SDS011;11754;42.664;23.594;2024-02-15T12:13:17;4.78;;;3.40;;
23171;SDS011;11754;42.664;23.594;2024-02-15T12:16:02;8.13;;;4.20;;
23171;SDS011;11754;42.664;23.594;2024-02-15T12:18:47;7.05;;;4.55;;
23171;SDS011;11754;42.664;23.594;2024-02-15T12:21:23;6.43;;;5.03;;
23171;SDS011;11754;42.664;23.594;2024-02-15T12:23:52;6.90;;;3.90;;
23171;SDS011;11754;42.664;23.594;2024-02-15T12:26:21;5.60;;;3.90;;
23171;SDS011;11754;42.664;23.594;2024-02-15T12:28:52;6.35;;;4.15;;
23171;SDS011;11754;42.664;23.594;2024-02-15T12:31:23;6.55;;;3.58;;
23171;SDS011;11754;42.664;23.594;2024-02-15T12:34:01;5.93;;;3.67;;
23171;SDS011;11754;42.664;23.594;2024-02-15T12:36:31;5.53;;;3.92;;
23171;SDS011;11754;42.664;23.594;2024-02-15T12:45:42;8.00;;;4.88;;
23171;SDS011;11754;42.664;23.594;2024-02-15T12:48:08;10.02;;;5.20;;
23171;SDS011;11754;42.664;23.594;2024-02-15T12:50:34;7.57;;;5.13;;
23171;SDS011;11754;42.664;23.594;2024-02-15T12:53:00;6.75;;;4.80;;
23171;SDS011;11754;42.664;23.594;2024-02-15T12:58:02;6.35;;;5.00;;
23171;SDS011;11754;42.664;23.594;2024-02-15T13:00:35;8.23;;;5.30;;
23171;SDS011;11754;42.664;23.594;2024-02-15T13:03:04;10.40;;;5.15;;
23171;SDS011;11754;42.664;23.594;2024-02-15T13:05:30;8.95;;;5.07;;
23171;SDS011;11754;42.664;23.594;2024-02-15T13:07:56;7.47;;;5.57;;
23171;SDS011;11754;42.664;23.594;2024-02-15T13:10:23;9.43;;;4.80;;
23171;SDS011;11754;42.664;23.594;2024-02-15T13:12:51;7.60;;;4.38;;
23171;SDS011;11754;42.664;23.594;2024-02-15T13:15:18;8.00;;;3.90;;
23171;SDS011;11754;42.664;23.594;2024-02-15T13:17:46;8.82;;;4.72;;
23171;SDS011;11754;42.664;23.594;2024-02-15T13:20:19;7.68;;;4.22;;
23171;SDS011;11754;42.664;23.594;2024-02-15T13:22:52;8.93;;;4.78;;
23171;SDS011;11754;42.664;23.594;2024-02-15T13:25:18;6.00;;;4.50;;
23171;SDS011;11754;42.664;23.594;2024-02-15T13:27:46;5.13;;;4.05;;
23171;SDS011;11754;42.664;23.594;2024-02-15T13:30:12;5.57;;;4.03;;
23171;SDS011;11754;42.664;23.594;2024-02-15T13:32:38;11.77;;;3.40;;
23171;SDS011;11754;42.664;23.594;2024-02-15T13:35:08;8.07;;;3.42;;
23171;SDS011;11754;42.664;23.594;2024-02-15T13:37:46;9.60;;;3.22;;
23171;SDS011;11754;42.664;23.594;2024-02-15T13:40:12;6.05;;;3.20;;
23171;SDS011;11754;42.664;23.594;2024-02-15T13:42:44;3.67;;;2.97;;
23171;SDS011;11754;42.664;23.594;2024-02-15T13:45:23;7.32;;;3.40;;
23171;SDS011;11754;42.664;23.594;2024-02-15T13:47:55;5.80;;;3.13;;
23171;SDS011;11754;42.664;23.594;2024-02-15T13:50:21;5.28;;;2.80;;
23171;SDS011;11754;42.664;23.594;2024-02-15T13:52:49;5.00;;;2.85;;
23171;SDS011;11754;42.664;23.594;2024-02-15T13:55:16;4.20;;;2.72;;
23171;SDS011;11754;42.664;23.594;2024-02-15T13:57:45;8.73;;;5.18;;
23171;SDS011;11754;42.664;23.594;2024-02-15T14:00:15;4.38;;;2.88;;
23171;SDS011;11754;42.664;23.594;2024-02-15T14:02:48;4.13;;;2.80;;
23171;SDS011;11754;42.664;23.594;2024-02-15T14:05:18;6.97;;;2.83;;
23171;SDS011;11754;42.664;23.594;2024-02-15T14:07:49;6.07;;;2.80;;
23171;SDS011;11754;42.664;23.594;2024-02-15T14:10:17;5.55;;;3.15;;
23171;SDS011;11754;42.664;23.594;2024-02-15T14:12:48;4.95;;;3.10;;
23171;SDS011;11754;42.664;23.594;2024-02-15T14:15:17;4.07;;;2.65;;
23171;SDS011;11754;42.664;23.594;2024-02-15T14:17:44;6.07;;;3.20;;
23171;SDS011;11754;42.664;23.594;2024-02-15T14:20:10;5.50;;;3.05;;
23171;SDS011;11754;42.664;23.594;2024-02-15T14:22:39;4.82;;;3.50;;
23171;SDS011;11754;42.664;23.594;2024-02-15T14:25:05;6.90;;;4.40;;
23171;SDS011;11754;42.664;23.594;2024-02-15T14:30:54;9.13;;;4.00;;
23171;SDS011;11754;42.664;23.594;2024-02-15T14:33:38;9.10;;;3.63;;
23171;SDS011;11754;42.664;23.594;2024-02-15T14:36:03;11.95;;;8.13;;
23171;SDS011;11754;42.664;23.594;2024-02-15T14:38:29;10.27;;;6.35;;
23171;SDS011;11754;42.664;23.594;2024-02-15T14:41:03;9.45;;;7.40;;
23171;SDS011;11754;42.664;23.594;2024-02-15T14:43:31;6.90;;;3.40;;
23171;SDS011;11754;42.664;23.594;2024-02-15T14:45:56;4.65;;;2.70;;
23171;SDS011;11754;42.664;23.594;2024-02-15T14:48:22;7.15;;;4.20;;
23171;SDS011;11754;42.664;23.594;2024-02-15T14:50:49;5.35;;;3.45;;
23171;SDS011;11754;42.664;23.594;2024-02-15T14:53:15;6.53;;;4.45;;
23171;SDS011;11754;42.664;23.594;2024-02-15T14:55:41;8.70;;;5.05;;
23171;SDS011;11754;42.664;23.594;2024-02-15T14:58:11;5.40;;;3.35;;
23171;SDS011;11754;42.664;23.594;2024-02-15T15:00:38;3.63;;;2.80;;
23171;SDS011;11754;42.664;23.594;2024-02-15T15:03:04;7.85;;;4.35;;
23171;SDS011;11754;42.664;23.594;2024-02-15T15:12:25;12.57;;;7.25;;
23171;SDS011;11754;42.664;23.594;2024-02-15T15:15:04;21.75;;;14.38;;
23171;SDS011;11754;42.664;23.594;2024-02-15T15:17:32;22.85;;;13.50;;
23171;SDS011;11754;42.664;23.594;2024-02-15T15:19:59;27.67;;;14.90;;
23171;SDS011;11754;42.664;23.594;2024-02-15T15:22:25;21.52;;;10.95;;
23171;SDS011;11754;42.664;23.594;2024-02-15T15:24:51;21.02;;;9.63;;
23171;SDS011;11754;42.664;23.594;2024-02-15T15:27:17;32.53;;;18.27;;
23171;SDS011;11754;42.664;23.594;2024-02-15T15:29:43;33.17;;;16.63;;
23171;SDS011;11754;42.664;23.594;2024-02-15T15:32:15;25.90;;;14.18;;
23171;SDS011;11754;42.664;23.594;2024-02-15T15:34:40;26.52;;;15.07;;
23171;SDS011;11754;42.664;23.594;2024-02-15T15:37:06;35.80;;;18.45;;
23171;SDS011;11754;42.664;23.594;2024-02-15T15:39:32;37.63;;;18.63;;
23171;SDS011;11754;42.664;23.594;2024-02-15T15:41:59;53.67;;;24.05;;
23171;SDS011;11754;42.664;23.594;2024-02-15T15:44:26;52.90;;;26.05;;
23171;SDS011;11754;42.664;23.594;2024-02-15T15:46:52;44.33;;;21.88;;
23171;SDS011;11754;42.664;23.594;2024-02-15T15:49:17;27.77;;;17.25;;
23171;SDS011;11754;42.664;23.594;2024-02-15T15:51:43;28.38;;;17.20;;
23171;SDS011;11754;42.664;23.594;2024-02-15T15:54:09;19.77;;;12.10;;
23171;SDS011;11754;42.664;23.594;2024-02-15T15:56:34;15.90;;;9.57;;
23171;SDS011;11754;42.664;23.594;2024-02-15T16:16:00;29.58;;;15.10;;
23171;SDS011;11754;42.664;23.594;2024-02-15T16:18:27;22.52;;;14.82;;
23171;SDS011;11754;42.664;23.594;2024-02-15T16:20:52;16.92;;;9.98;;
23171;SDS011;11754;42.664;23.594;2024-02-15T16:23:18;17.55;;;10.43;;
23171;SDS011;11754;42.664;23.594;2024-02-15T16:25:44;19.60;;;10.05;;
23171;SDS011;11754;42.664;23.594;2024-02-15T16:28:09;19.42;;;10.73;;
23171;SDS011;11754;42.664;23.594;2024-02-15T16:30:35;21.67;;;13.13;;
23171;SDS011;11754;42.664;23.594;2024-02-15T16:33:01;29.02;;;18.27;;
23171;SDS011;11754;42.664;23.594;2024-02-15T16:35:29;66.43;;;33.50;;
23171;SDS011;11754;42.664;23.594;2024-02-15T16:37:55;83.05;;;44.30;;
23171;SDS011;11754;42.664;23.594;2024-02-15T16:40:21;70.75;;;39.38;;
23171;SDS011;11754;42.664;23.594;2024-02-15T16:42:48;74.65;;;45.72;;
23171;SDS011;11754;42.664;23.594;2024-02-15T16:45:14;75.03;;;44.45;;
23171;SDS011;11754;42.664;23.594;2024-02-15T16:47:42;79.22;;;48.55;;
23171;SDS011;11754;42.664;23.594;2024-02-15T16:50:17;78.45;;;48.88;;
23171;SDS011;11754;42.664;23.594;2024-02-15T16:55:27;67.78;;;41.05;;